sensor_id;sensor_type;location;lat;lon;timestamp;pressure;altitude;pressure_sealevel;temperature
64600;BMP280;6553;48.412;9.514;2023-02-15T00:01:41;71689.56;;;20.09
64600;BMP280;6553;48.412;9.514;2023-02-15T00:04:09;71686.78;;;20.09
64600;BMP280;6553;48.412;9.514;2023-02-15T00:06:35;71686.78;;;20.09
64600;BMP280;6553;48.412;9.514;2023-02-15T00:09:03;71687.31;;;20.10
64600;BMP280;6553;48.412;9.514;2023-02-15T00:11:29;71682.44;;;20.08
64600;BMP280;6553;48.412;9.514;2023-02-15T00:16:42;71685.72;;;20.08
64600;BMP280;6553;48.412;9.514;2023-02-15T00:19:11;71683.47;;;20.09
64600;BMP280;6553;48.412;9.514;2023-02-15T00:21:39;71685.19;;;20.08
64600;BMP280;6553;48.412;9.514;2023-02-15T00:24:08;71686.78;;;20.09
64600;BMP280;6553;48.412;9.514;2023-02-15T00:26:35;71685.72;;;20.08
64600;BMP280;6553;48.412;9.514;2023-02-15T00:29:03;71688.50;;;20.08
64600;BMP280;6553;48.412;9.514;2023-02-15T00:31:31;71683.59;;;20.06
64600;BMP280;6553;48.412;9.514;2023-02-15T00:34:18;71685.28;;;20.05
64600;BMP280;6553;48.412;9.514;2023-02-15T00:36:45;71682.66;;;20.03
64600;BMP280;6553;48.412;9.514;2023-02-15T00:39:14;71683.19;;;20.03
64600;BMP280;6553;48.412;9.514;2023-02-15T00:41:40;71677.09;;;20.03
64600;BMP280;6553;48.412;9.514;2023-02-15T00:44:07;71684.25;;;20.04
64600;BMP280;6553;48.412;9.514;2023-02-15T00:46:33;71683.19;;;20.03
64600;BMP280;6553;48.412;9.514;2023-02-15T00:49:00;71683.72;;;20.04
64600;BMP280;6553;48.412;9.514;2023-02-15T00:51:26;71679.47;;;20.00
64600;BMP280;6553;48.412;9.514;2023-02-15T00:53:52;71684.25;;;20.04
64600;BMP280;6553;48.412;9.514;2023-02-15T00:56:18;71677.66;;;20.03
64600;BMP280;6553;48.412;9.514;2023-02-15T00:58:44;71677.09;;;20.03
64600;BMP280;6553;48.412;9.514;2023-02-15T01:01:17;71685.41;;;20.03
64600;BMP280;6553;48.412;9.514;2023-02-15T01:03:44;71683.19;;;20.03
64600;BMP280;6553;48.412;9.514;2023-02-15T01:06:13;71687.66;;;20.02
64600;BMP280;6553;48.412;9.514;2023-02-15T01:08:43;71683.72;;;20.04
64600;BMP280;6553;48.412;9.514;2023-02-15T01:11:13;71682.09;;;20.02
64600;BMP280;6553;48.412;9.514;2023-02-15T01:13:40;71682.09;;;20.02
64600;BMP280;6553;48.412;9.514;2023-02-15T01:16:07;71683.31;;;20.01
64600;BMP280;6553;48.412;9.514;2023-02-15T01:18:34;71677.84;;;19.98
64600;BMP280;6553;48.412;9.514;2023-02-15T01:21:17;71676.91;;;19.95
64600;BMP280;6553;48.412;9.514;2023-02-15T01:23:43;71672.03;;;19.93
64600;BMP280;6553;48.412;9.514;2023-02-15T01:26:12;71677.44;;;19.95
64600;BMP280;6553;48.412;9.514;2023-02-15T01:28:38;71674.56;;;19.98
64600;BMP280;6553;48.412;9.514;2023-02-15T01:31:13;71678.53;;;19.96
64600;BMP280;6553;48.412;9.514;2023-02-15T01:33:39;71669.13;;;19.95
64600;BMP280;6553;48.412;9.514;2023-02-15T01:36:06;71674.16;;;19.95
64600;BMP280;6553;48.412;9.514;2023-02-15T01:38:32;71670.72;;;19.97
64600;BMP280;6553;48.412;9.514;2023-02-15T01:40:58;71679.03;;;19.97
64600;BMP280;6553;48.412;9.514;2023-02-15T01:44:01;71672.97;;;19.96
64600;BMP280;6553;48.412;9.514;2023-02-15T01:46:51;71670.44;;;19.91
64600;BMP280;6553;48.412;9.514;2023-02-15T01:49:21;71671.06;;;19.89
64600;BMP280;6553;48.412;9.514;2023-02-15T01:51:51;71667.78;;;19.89
64600;BMP280;6553;48.412;9.514;2023-02-15T01:54:33;71667.78;;;19.89
64600;BMP280;6553;48.412;9.514;2023-02-15T01:57:09;71676.91;;;19.95
64600;BMP280;6553;48.412;9.514;2023-02-15T01:59:38;71671.50;;;19.92
64600;BMP280;6553;48.412;9.514;2023-02-15T02:02:09;71670.44;;;19.91
64600;BMP280;6553;48.412;9.514;2023-02-15T02:04:50;71675.22;;;19.96
64600;BMP280;6553;48.412;9.514;2023-02-15T02:07:21;71673.59;;;19.94
64600;BMP280;6553;48.412;9.514;2023-02-15T02:09:48;71664.34;;;19.91
64600;BMP280;6553;48.412;9.514;2023-02-15T02:12:17;71661.72;;;19.88
64600;BMP280;6553;48.412;9.514;2023-02-15T02:14:45;71671.06;;;19.89
64600;BMP280;6553;48.412;9.514;2023-02-15T02:17:55;71669.50;;;19.88
64600;BMP280;6553;48.412;9.514;2023-02-15T02:23:39;71669.78;;;19.93
64600;BMP280;6553;48.412;9.514;2023-02-15T02:32:17;71666.19;;;19.87
64600;BMP280;6553;48.412;9.514;2023-02-15T02:35:11;71672.16;;;19.90
64600;BMP280;6553;48.412;9.514;2023-02-15T02:41:06;71666.19;;;19.87
64600;BMP280;6553;48.412;9.514;2023-02-15T02:44:02;71666.72;;;19.88
64600;BMP280;6553;48.412;9.514;2023-02-15T02:49:39;71658.50;;;19.85
64600;BMP280;6553;48.412;9.514;2023-02-15T02:52:43;71661.94;;;19.83
64600;BMP280;6553;48.412;9.514;2023-02-15T02:58:27;71667.91;;;19.86
64600;BMP280;6553;48.412;9.514;2023-02-15T03:00:57;71667.91;;;19.86
64600;BMP280;6553;48.412;9.514;2023-02-15T03:03:37;71657.03;;;19.81
64600;BMP280;6553;48.412;9.514;2023-02-15T03:06:20;71659.28;;;19.81
64600;BMP280;6553;48.412;9.514;2023-02-15T03:08:59;71655.97;;;19.80
64600;BMP280;6553;48.412;9.514;2023-02-15T03:11:29;71662.56;;;19.81
64600;BMP280;6553;48.412;9.514;2023-02-15T03:13:56;71662.56;;;19.81
64600;BMP280;6553;48.412;9.514;2023-02-15T03:16:22;71660.34;;;19.82
64600;BMP280;6553;48.412;9.514;2023-02-15T03:19:08;71661.94;;;19.83
64600;BMP280;6553;48.412;9.514;2023-02-15T03:21:48;71660.75;;;19.85
64600;BMP280;6553;48.412;9.514;2023-02-15T03:24:31;71658.25;;;19.80
64600;BMP280;6553;48.412;9.514;2023-02-15T03:27:02;71655.97;;;19.80
64600;BMP280;6553;48.412;9.514;2023-02-15T03:29:30;71655.97;;;19.80
64600;BMP280;6553;48.412;9.514;2023-02-15T03:32:03;71650.69;;;19.75
64600;BMP280;6553;48.412;9.514;2023-02-15T03:34:30;71653.44;;;19.75
64600;BMP280;6553;48.412;9.514;2023-02-15T03:37:28;71652.38;;;19.74
64600;BMP280;6553;48.412;9.514;2023-02-15T03:39:59;71659.28;;;19.81
64600;BMP280;6553;48.412;9.514;2023-02-15T03:43:00;71660.88;;;19.82
64600;BMP280;6553;48.412;9.514;2023-02-15T03:45:31;71657.03;;;19.81
64600;BMP280;6553;48.412;9.514;2023-02-15T03:48:00;71656.63;;;19.78
64600;BMP280;6553;48.412;9.514;2023-02-15T03:50:31;71650.03;;;19.77
64600;BMP280;6553;48.412;9.514;2023-02-15T03:53:20;71649.06;;;19.74
64600;BMP280;6553;48.412;9.514;2023-02-15T03:55:49;71655.56;;;19.77
64600;BMP280;6553;48.412;9.514;2023-02-15T03:58:18;71654.50;;;19.76
64600;BMP280;6553;48.412;9.514;2023-02-15T04:01:25;71656.09;;;19.78
64600;BMP280;6553;48.412;9.514;2023-02-15T04:04:21;71649.63;;;19.74
64600;BMP280;6553;48.412;9.514;2023-02-15T04:06:48;71649.19;;;19.71
64600;BMP280;6553;48.412;9.514;2023-02-15T04:09:14;71645.78;;;19.73
64600;BMP280;6553;48.412;9.514;2023-02-15T04:11:58;71646.41;;;19.71
64600;BMP280;6553;48.412;9.514;2023-02-15T04:14:24;71649.19;;;19.71
64600;BMP280;6553;48.412;9.514;2023-02-15T04:17:09;71645.78;;;19.73
64600;BMP280;6553;48.412;9.514;2023-02-15T04:19:35;71654.09;;;19.73
64600;BMP280;6553;48.412;9.514;2023-02-15T04:22:20;71655.16;;;19.74
64600;BMP280;6553;48.412;9.514;2023-02-15T04:25:05;71649.06;;;19.74
64600;BMP280;6553;48.412;9.514;2023-02-15T04:27:50;71642.59;;;19.70
64600;BMP280;6553;48.412;9.514;2023-02-15T04:30:21;71646.31;;;19.74
64600;BMP280;6553;48.412;9.514;2023-02-15T04:32:47;71643.25;;;19.68
64600;BMP280;6553;48.412;9.514;2023-02-15T04:35:14;71640.47;;;19.68
64600;BMP280;6553;48.412;9.514;2023-02-15T04:37:41;71642.81;;;19.65
64600;BMP280;6553;48.412;9.514;2023-02-15T04:40:10;71647.06;;;19.69
64600;BMP280;6553;48.412;9.514;2023-02-15T04:42:36;71643.78;;;19.69
64600;BMP280;6553;48.412;9.514;2023-02-15T04:45:02;71647.06;;;19.69
64600;BMP280;6553;48.412;9.514;2023-02-15T04:47:28;71648.13;;;19.70
64600;BMP280;6553;48.412;9.514;2023-02-15T04:49:54;71649.31;;;19.69
64600;BMP280;6553;48.412;9.514;2023-02-15T04:52:20;71642.59;;;19.70
64600;BMP280;6553;48.412;9.514;2023-02-15T04:54:45;71647.63;;;19.70
64600;BMP280;6553;48.412;9.514;2023-02-15T04:57:12;71647.50;;;19.72
64600;BMP280;6553;48.412;9.514;2023-02-15T04:59:38;71643.13;;;19.71
64600;BMP280;6553;48.412;9.514;2023-02-15T05:02:04;71649.72;;;19.72
64600;BMP280;6553;48.412;9.514;2023-02-15T05:04:29;71647.63;;;19.70
64600;BMP280;6553;48.412;9.514;2023-02-15T05:06:55;71641.00;;;19.69
64600;BMP280;6553;48.412;9.514;2023-02-15T05:09:21;71652.50;;;19.72
64600;BMP280;6553;48.412;9.514;2023-02-15T05:11:47;71648.66;;;19.71
64600;BMP280;6553;48.412;9.514;2023-02-15T05:14:13;71647.63;;;19.70
64600;BMP280;6553;48.412;9.514;2023-02-15T05:16:39;71648.13;;;19.70
64600;BMP280;6553;48.412;9.514;2023-02-15T05:19:05;71647.19;;;19.67
64600;BMP280;6553;48.412;9.514;2023-02-15T05:21:32;71645.06;;;19.65
64600;BMP280;6553;48.412;9.514;2023-02-15T05:23:58;71639.13;;;19.62
64600;BMP280;6553;48.412;9.514;2023-02-15T05:26:25;71635.69;;;19.63
64600;BMP280;6553;48.412;9.514;2023-02-15T05:29:10;71636.34;;;19.62
64600;BMP280;6553;48.412;9.514;2023-02-15T05:31:37;71639.13;;;19.62
64600;BMP280;6553;48.412;9.514;2023-02-15T05:34:03;71639.00;;;19.64
64600;BMP280;6553;48.412;9.514;2023-02-15T05:36:29;71641.22;;;19.63
64600;BMP280;6553;48.412;9.514;2023-02-15T05:38:55;71641.75;;;19.64
64600;BMP280;6553;48.412;9.514;2023-02-15T05:41:21;71640.69;;;19.63
64600;BMP280;6553;48.412;9.514;2023-02-15T05:43:47;71643.38;;;19.66
64600;BMP280;6553;48.412;9.514;2023-02-15T05:46:13;71648.78;;;19.68
64600;BMP280;6553;48.412;9.514;2023-02-15T05:48:39;71643.25;;;19.68
64600;BMP280;6553;48.412;9.514;2023-02-15T05:51:11;71644.41;;;19.67
64600;BMP280;6553;48.412;9.514;2023-02-15T05:53:39;71640.06;;;19.65
64600;BMP280;6553;48.412;9.514;2023-02-15T05:56:08;71645.47;;;19.68
64600;BMP280;6553;48.412;9.514;2023-02-15T05:58:40;71640.59;;;19.66
64600;BMP280;6553;48.412;9.514;2023-02-15T06:01:18;71636.34;;;19.62
64600;BMP280;6553;48.412;9.514;2023-02-15T06:03:45;71640.69;;;19.63
64600;BMP280;6553;48.412;9.514;2023-02-15T06:06:11;71643.56;;;19.60
64600;BMP280;6553;48.412;9.514;2023-02-15T06:08:38;71633.69;;;19.59
64600;BMP280;6553;48.412;9.514;2023-02-15T06:11:04;71638.16;;;19.58
64600;BMP280;6553;48.412;9.514;2023-02-15T06:13:31;71635.81;;;19.61
64600;BMP280;6553;48.412;9.514;2023-02-15T06:15:57;71641.75;;;19.64
64600;BMP280;6553;48.412;9.514;2023-02-15T06:18:24;71641.75;;;19.64
64600;BMP280;6553;48.412;9.514;2023-02-15T06:20:49;71643.44;;;19.63
64600;BMP280;6553;48.412;9.514;2023-02-15T06:23:16;71642.28;;;19.65
64600;BMP280;6553;48.412;9.514;2023-02-15T06:25:42;71642.28;;;19.65
64600;BMP280;6553;48.412;9.514;2023-02-15T06:28:08;71648.78;;;19.68
64600;BMP280;6553;48.412;9.514;2023-02-15T06:30:33;71642.59;;;19.70
64600;BMP280;6553;48.412;9.514;2023-02-15T06:32:59;71646.00;;;19.68
64600;BMP280;6553;48.412;9.514;2023-02-15T06:35:25;71643.91;;;19.66
64600;BMP280;6553;48.412;9.514;2023-02-15T06:37:51;71639.53;;;19.65
64600;BMP280;6553;48.412;9.514;2023-02-15T06:40:17;71643.25;;;19.68
64600;BMP280;6553;48.412;9.514;2023-02-15T06:42:43;71647.19;;;19.67
64600;BMP280;6553;48.412;9.514;2023-02-15T06:45:10;71640.47;;;19.68
64600;BMP280;6553;48.412;9.514;2023-02-15T06:47:37;71640.06;;;19.65
64600;BMP280;6553;48.412;9.514;2023-02-15T06:50:04;71646.53;;;19.69
64600;BMP280;6553;48.412;9.514;2023-02-15T06:52:30;71643.91;;;19.66
64600;BMP280;6553;48.412;9.514;2023-02-15T06:54:56;71641.75;;;19.64
64600;BMP280;6553;48.412;9.514;2023-02-15T06:57:22;71642.81;;;19.65
64600;BMP280;6553;48.412;9.514;2023-02-15T06:59:48;71646.13;;;19.66
64600;BMP280;6553;48.412;9.514;2023-02-15T07:02:14;71642.16;;;19.67
64600;BMP280;6553;48.412;9.514;2023-02-15T07:04:40;71643.44;;;19.63
64600;BMP280;6553;48.412;9.514;2023-02-15T07:07:11;71642.81;;;19.65
64600;BMP280;6553;48.412;9.514;2023-02-15T07:09:37;71643.91;;;19.66
64600;BMP280;6553;48.412;9.514;2023-02-15T07:12:04;71643.91;;;19.66
64600;BMP280;6553;48.412;9.514;2023-02-15T07:14:48;71646.00;;;19.68
64600;BMP280;6553;48.412;9.514;2023-02-15T07:17:14;71645.38;;;19.70
64600;BMP280;6553;48.412;9.514;2023-02-15T07:19:40;71649.19;;;19.71
64600;BMP280;6553;48.412;9.514;2023-02-15T07:22:06;71643.66;;;19.71
64600;BMP280;6553;48.412;9.514;2023-02-15T07:24:32;71646.94;;;19.72
64600;BMP280;6553;48.412;9.514;2023-02-15T07:26:58;71649.72;;;19.72
64600;BMP280;6553;48.412;9.514;2023-02-15T07:29:24;71652.50;;;19.72
64600;BMP280;6553;48.412;9.514;2023-02-15T07:31:50;71651.31;;;19.73
64600;BMP280;6553;48.412;9.514;2023-02-15T07:34:16;71643.13;;;19.71
64600;BMP280;6553;48.412;9.514;2023-02-15T07:36:42;71647.63;;;19.70
64600;BMP280;6553;48.412;9.514;2023-02-15T07:39:10;71650.78;;;19.73
64600;BMP280;6553;48.412;9.514;2023-02-15T07:41:36;71646.41;;;19.71
64600;BMP280;6553;48.412;9.514;2023-02-15T07:44:14;71644.72;;;19.72
64600;BMP280;6553;48.412;9.514;2023-02-15T07:46:41;71654.63;;;19.74
64600;BMP280;6553;48.412;9.514;2023-02-15T07:49:07;71650.25;;;19.72
64600;BMP280;6553;48.412;9.514;2023-02-15T07:51:33;71652.38;;;19.74
64600;BMP280;6553;48.412;9.514;2023-02-15T07:53:59;71650.16;;;19.75
64600;BMP280;6553;48.412;9.514;2023-02-15T07:56:25;71652.91;;;19.75
64600;BMP280;6553;48.412;9.514;2023-02-15T07:58:51;71655.97;;;19.80
64600;BMP280;6553;48.412;9.514;2023-02-15T08:01:33;71658.72;;;19.80
64600;BMP280;6553;48.412;9.514;2023-02-15T08:04:01;71659.28;;;19.81
64600;BMP280;6553;48.412;9.514;2023-02-15T08:06:30;71662.47;;;19.84
64600;BMP280;6553;48.412;9.514;2023-02-15T08:08:56;71659.19;;;19.83
64600;BMP280;6553;48.412;9.514;2023-02-15T08:11:29;71667.91;;;19.86
64600;BMP280;6553;48.412;9.514;2023-02-15T08:14:16;71659.69;;;19.84
64600;BMP280;6553;48.412;9.514;2023-02-15T08:16:54;71660.63;;;19.87
64600;BMP280;6553;48.412;9.514;2023-02-15T08:19:28;71667.91;;;19.86
64600;BMP280;6553;48.412;9.514;2023-02-15T08:24:26;71660.63;;;19.87
64600;BMP280;6553;48.412;9.514;2023-02-15T08:26:52;71667.25;;;19.88
64600;BMP280;6553;48.412;9.514;2023-02-15T08:29:25;71664.88;;;19.91
64600;BMP280;6553;48.412;9.514;2023-02-15T08:31:58;71667.13;;;19.91
64600;BMP280;6553;48.412;9.514;2023-02-15T08:34:29;71671.50;;;19.92
64600;BMP280;6553;48.412;9.514;2023-02-15T08:36:55;71673.09;;;19.94
64600;BMP280;6553;48.412;9.514;2023-02-15T08:39:21;71678.53;;;19.96
64600;BMP280;6553;48.412;9.514;2023-02-15T08:41:48;71669.13;;;19.95
64600;BMP280;6553;48.412;9.514;2023-02-15T08:44:17;71674.69;;;19.95
64600;BMP280;6553;48.412;9.514;2023-02-15T08:46:46;71675.50;;;20.01
64600;BMP280;6553;48.412;9.514;2023-02-15T08:49:16;71681.03;;;20.01
64600;BMP280;6553;48.412;9.514;2023-02-15T08:51:43;71677.84;;;19.98
64600;BMP280;6553;48.412;9.514;2023-02-15T08:54:13;71681.03;;;20.01
64600;BMP280;6553;48.412;9.514;2023-02-15T08:56:41;71684.25;;;20.04
64600;BMP280;6553;48.412;9.514;2023-02-15T08:59:14;71683.06;;;20.06
64600;BMP280;6553;48.412;9.514;2023-02-15T09:01:42;71688.50;;;20.08
64600;BMP280;6553;48.412;9.514;2023-02-15T09:04:08;71687.97;;;20.08
64600;BMP280;6553;48.412;9.514;2023-02-15T09:06:35;71683.47;;;20.09
64600;BMP280;6553;48.412;9.514;2023-02-15T09:09:01;71687.84;;;20.10
64600;BMP280;6553;48.412;9.514;2023-02-15T09:11:39;71689.44;;;20.12
64600;BMP280;6553;48.412;9.514;2023-02-15T09:14:10;71693.38;;;20.10
64600;BMP280;6553;48.412;9.514;2023-02-15T09:16:41;71690.63;;;20.10
64600;BMP280;6553;48.412;9.514;2023-02-15T09:19:08;71687.31;;;20.10
64600;BMP280;6553;48.412;9.514;2023-02-15T09:21:37;71696.16;;;20.10
64600;BMP280;6553;48.412;9.514;2023-02-15T09:24:10;71692.84;;;20.10
64600;BMP280;6553;48.412;9.514;2023-02-15T09:26:40;71687.84;;;20.10
64600;BMP280;6553;48.412;9.514;2023-02-15T09:29:07;71692.75;;;20.12
64600;BMP280;6553;48.412;9.514;2023-02-15T09:31:43;71696.03;;;20.13
64600;BMP280;6553;48.412;9.514;2023-02-15T09:34:13;71694.88;;;20.14
64600;BMP280;6553;48.412;9.514;2023-02-15T09:36:41;71696.44;;;20.16
64600;BMP280;6553;48.412;9.514;2023-02-15T09:39:19;71695.91;;;20.15
64600;BMP280;6553;48.412;9.514;2023-02-15T10:05:29;71698.47;;;20.20
64600;BMP280;6553;48.412;9.514;2023-02-15T10:14:32;71698.47;;;20.20
64600;BMP280;6553;48.412;9.514;2023-02-15T10:17:48;71702.31;;;20.21
64600;BMP280;6553;48.412;9.514;2023-02-15T10:26:49;71702.19;;;20.24
64600;BMP280;6553;48.412;9.514;2023-02-15T10:29:36;71702.72;;;20.24
64600;BMP280;6553;48.412;9.514;2023-02-15T10:32:27;71704.81;;;20.26
64600;BMP280;6553;48.412;9.514;2023-02-15T10:35:21;71707.59;;;20.26
64600;BMP280;6553;48.412;9.514;2023-02-15T11:06:19;71708.97;;;20.33
64600;BMP280;6553;48.412;9.514;2023-02-15T11:09:01;71715.03;;;20.33
64600;BMP280;6553;48.412;9.514;2023-02-15T11:11:39;71720.47;;;20.36
64600;BMP280;6553;48.412;9.514;2023-02-15T11:14:56;71718.75;;;20.37
64600;BMP280;6553;48.412;9.514;2023-02-15T11:17:48;71717.06;;;20.38
64600;BMP280;6553;48.412;9.514;2023-02-15T11:23:16;71718.75;;;20.37
64600;BMP280;6553;48.412;9.514;2023-02-15T11:25:57;71718.13;;;20.39
64600;BMP280;6553;48.412;9.514;2023-02-15T11:28:31;71717.06;;;20.38
64600;BMP280;6553;48.412;9.514;2023-02-15T11:31:11;71720.38;;;20.38
64600;BMP280;6553;48.412;9.514;2023-02-15T11:33:43;71723.13;;;20.38
64600;BMP280;6553;48.412;9.514;2023-02-15T11:36:36;71722.47;;;20.40
64600;BMP280;6553;48.412;9.514;2023-02-15T11:39:11;71723.53;;;20.41
64600;BMP280;6553;48.412;9.514;2023-02-15T11:41:59;71728.03;;;20.40
64600;BMP280;6553;48.412;9.514;2023-02-15T11:44:42;71718.00;;;20.41
64600;BMP280;6553;48.412;9.514;2023-02-15T11:47:11;71723.53;;;20.41
64600;BMP280;6553;48.412;9.514;2023-02-15T11:49:38;71718.53;;;20.42
64600;BMP280;6553;48.412;9.514;2023-02-15T11:52:13;71726.72;;;20.44
64600;BMP280;6553;48.412;9.514;2023-02-15T11:54:44;71728.97;;;20.44
64600;BMP280;6553;48.412;9.514;2023-02-15T12:02:38;71725.03;;;20.45
64600;BMP280;6553;48.412;9.514;2023-02-15T12:05:16;71731.63;;;20.46
64600;BMP280;6553;48.412;9.514;2023-02-15T12:08:03;71723.31;;;20.46
64600;BMP280;6553;48.412;9.514;2023-02-15T12:10:41;71731.09;;;20.46
64600;BMP280;6553;48.412;9.514;2023-02-15T12:13:18;71731.09;;;20.46
64600;BMP280;6553;48.412;9.514;2023-02-15T12:15:51;71731.63;;;20.46
64600;BMP280;6553;48.412;9.514;2023-02-15T12:18:39;71735.44;;;20.47
64600;BMP280;6553;48.412;9.514;2023-02-15T12:21:31;71730.97;;;20.48
64600;BMP280;6553;48.412;9.514;2023-02-15T12:26:41;71730.97;;;20.48
64600;BMP280;6553;48.412;9.514;2023-02-15T12:29:16;71726.50;;;20.49
64600;BMP280;6553;48.412;9.514;2023-02-15T12:31:49;71728.75;;;20.49
64600;BMP280;6553;48.412;9.514;2023-02-15T12:34:25;71732.06;;;20.49
64600;BMP280;6553;48.412;9.514;2023-02-15T12:36:56;71725.44;;;20.48
64600;BMP280;6553;48.412;9.514;2023-02-15T12:39:29;71731.50;;;20.49
64600;BMP280;6553;48.412;9.514;2023-02-15T12:47:03;71732.06;;;20.49
64600;BMP280;6553;48.412;9.514;2023-02-15T12:49:39;71726.50;;;20.49
64600;BMP280;6553;48.412;9.514;2023-02-15T12:52:25;71732.56;;;20.50
64600;BMP280;6553;48.412;9.514;2023-02-15T12:54:51;71732.56;;;20.50
64600;BMP280;6553;48.412;9.514;2023-02-15T12:57:27;71733.09;;;20.50
64600;BMP280;6553;48.412;9.514;2023-02-15T13:02:47;71736.94;;;20.51
64600;BMP280;6553;48.412;9.514;2023-02-15T13:05:24;71735.22;;;20.52
64600;BMP280;6553;48.412;9.514;2023-02-15T13:08:18;71732.44;;;20.52
64600;BMP280;6553;48.412;9.514;2023-02-15T13:11:10;71731.91;;;20.52
64600;BMP280;6553;48.412;9.514;2023-02-15T13:13:53;71736.28;;;20.53
64600;BMP280;6553;48.412;9.514;2023-02-15T13:16:34;71739.06;;;20.53
64600;BMP280;6553;48.412;9.514;2023-02-15T13:19:17;71737.88;;;20.55
64600;BMP280;6553;48.412;9.514;2023-02-15T13:21:48;71739.59;;;20.54
64600;BMP280;6553;48.412;9.514;2023-02-15T13:24:22;71741.19;;;20.55
64600;BMP280;6553;48.412;9.514;2023-02-15T13:26:49;71731.28;;;20.54
64600;BMP280;6553;48.412;9.514;2023-02-15T13:29:26;71735.63;;;20.55
64600;BMP280;6553;48.412;9.514;2023-02-15T13:31:54;71739.47;;;20.57
64600;BMP280;6553;48.412;9.514;2023-02-15T13:34:36;71735.63;;;20.55
64600;BMP280;6553;48.412;9.514;2023-02-15T13:37:34;71738.94;;;20.56
64600;BMP280;6553;48.412;9.514;2023-02-15T13:49:27;71740.53;;;20.58
64600;BMP280;6553;48.412;9.514;2023-02-15T13:52:18;71740.00;;;20.57
64600;BMP280;6553;48.412;9.514;2023-02-15T13:58:28;71740.53;;;20.58
64600;BMP280;6553;48.412;9.514;2023-02-15T14:01:08;71740.53;;;20.58
64600;BMP280;6553;48.412;9.514;2023-02-15T14:15:46;71740.53;;;20.58
64600;BMP280;6553;48.412;9.514;2023-02-15T14:18:43;71740.53;;;20.58
64600;BMP280;6553;48.412;9.514;2023-02-15T14:21:22;71739.38;;;20.59
64600;BMP280;6553;48.412;9.514;2023-02-15T14:24:21;71737.75;;;20.58
64600;BMP280;6553;48.412;9.514;2023-02-15T14:27:02;71741.59;;;20.59
64600;BMP280;6553;48.412;9.514;2023-02-15T14:30:00;71744.91;;;20.59
64600;BMP280;6553;48.412;9.514;2023-02-15T14:32:41;71740.94;;;20.61
64600;BMP280;6553;48.412;9.514;2023-02-15T14:35:18;71740.41;;;20.60
64600;BMP280;6553;48.412;9.514;2023-02-15T14:49:15;71743.19;;;20.60
64600;BMP280;6553;48.412;9.514;2023-02-15T14:57:32;71746.47;;;20.61
64600;BMP280;6553;48.412;9.514;2023-02-15T15:02:49;71737.13;;;20.60
64600;BMP280;6553;48.412;9.514;2023-02-15T15:05:33;71740.94;;;20.61
64600;BMP280;6553;48.412;9.514;2023-02-15T15:08:03;71744.25;;;20.61
64600;BMP280;6553;48.412;9.514;2023-02-15T15:10:39;71743.72;;;20.61
64600;BMP280;6553;48.412;9.514;2023-02-15T15:16:23;71737.13;;;20.60
64600;BMP280;6553;48.412;9.514;2023-02-15T15:18:45;71743.72;;;20.61
64600;BMP280;6553;48.412;9.514;2023-02-15T15:27:51;71744.25;;;20.61
64600;BMP280;6553;48.412;9.514;2023-02-15T15:50:22;71743.72;;;20.61
64600;BMP280;6553;48.412;9.514;2023-02-15T15:52:59;71740.41;;;20.60
64600;BMP280;6553;48.412;9.514;2023-02-15T15:55:30;71740.41;;;20.60
64600;BMP280;6553;48.412;9.514;2023-02-15T15:58:03;71742.66;;;20.60
64600;BMP280;6553;48.412;9.514;2023-02-15T16:00:56;71747.69;;;20.59
64600;BMP280;6553;48.412;9.514;2023-02-15T16:03:27;71740.94;;;20.61
64600;BMP280;6553;48.412;9.514;2023-02-15T16:05:54;71740.41;;;20.60
64600;BMP280;6553;48.412;9.514;2023-02-15T16:08:31;71743.72;;;20.61
64600;BMP280;6553;48.412;9.514;2023-02-15T16:10:58;71739.88;;;20.60
64600;BMP280;6553;48.412;9.514;2023-02-15T16:13:26;71740.94;;;20.61
64600;BMP280;6553;48.412;9.514;2023-02-15T16:15:54;71743.72;;;20.61
64600;BMP280;6553;48.412;9.514;2023-02-15T16:18:25;71736.59;;;20.59
64600;BMP280;6553;48.412;9.514;2023-02-15T16:20:58;71741.59;;;20.59
64600;BMP280;6553;48.412;9.514;2023-02-15T16:28:52;71741.06;;;20.58
64600;BMP280;6553;48.412;9.514;2023-02-15T16:31:19;71741.06;;;20.58
64600;BMP280;6553;48.412;9.514;2023-02-15T16:33:46;71733.94;;;20.57
64600;BMP280;6553;48.412;9.514;2023-02-15T16:36:24;71737.75;;;20.58
64600;BMP280;6553;48.412;9.514;2023-02-15T16:41:23;71742.25;;;20.57
64600;BMP280;6553;48.412;9.514;2023-02-15T16:43:52;71741.72;;;20.56
64600;BMP280;6553;48.412;9.514;2023-02-15T16:46:52;71738.41;;;20.55
64600;BMP280;6553;48.412;9.514;2023-02-15T16:49:37;71740.00;;;20.57
64600;BMP280;6553;48.412;9.514;2023-02-15T16:52:06;71735.63;;;20.55
64600;BMP280;6553;48.412;9.514;2023-02-15T16:54:33;71733.41;;;20.56
64600;BMP280;6553;48.412;9.514;2023-02-15T16:57:01;71733.41;;;20.56
64600;BMP280;6553;48.412;9.514;2023-02-15T16:59:42;71737.34;;;20.54
64600;BMP280;6553;48.412;9.514;2023-02-15T17:02:21;71733.50;;;20.53
64600;BMP280;6553;48.412;9.514;2023-02-15T17:05:14;71736.81;;;20.54
64600;BMP280;6553;48.412;9.514;2023-02-15T17:07:49;71734.59;;;20.54
64600;BMP280;6553;48.412;9.514;2023-02-15T17:10:36;71735.22;;;20.52
64600;BMP280;6553;48.412;9.514;2023-02-15T17:13:16;71736.28;;;20.53
64600;BMP280;6553;48.412;9.514;2023-02-15T17:18:39;71736.28;;;20.53
64600;BMP280;6553;48.412;9.514;2023-02-15T17:21:19;71735.75;;;20.53
64600;BMP280;6553;48.412;9.514;2023-02-15T17:23:50;71734.69;;;20.52
64600;BMP280;6553;48.412;9.514;2023-02-15T17:26:27;71728.63;;;20.51
64600;BMP280;6553;48.412;9.514;2023-02-15T17:28:59;71733.63;;;20.51
64600;BMP280;6553;48.412;9.514;2023-02-15T17:31:31;71733.63;;;20.51
64600;BMP280;6553;48.412;9.514;2023-02-15T17:33:59;71732.44;;;20.52
64600;BMP280;6553;48.412;9.514;2023-02-15T17:36:29;71734.16;;;20.51
64600;BMP280;6553;48.412;9.514;2023-02-15T17:38:59;71734.16;;;20.51
64600;BMP280;6553;48.412;9.514;2023-02-15T17:41:34;71733.63;;;20.51
64600;BMP280;6553;48.412;9.514;2023-02-15T17:44:01;71732.56;;;20.50
64600;BMP280;6553;48.412;9.514;2023-02-15T17:46:35;71732.56;;;20.50
64600;BMP280;6553;48.412;9.514;2023-02-15T17:49:02;71732.56;;;20.50
64600;BMP280;6553;48.412;9.514;2023-02-15T17:51:30;71732.56;;;20.50
64600;BMP280;6553;48.412;9.514;2023-02-15T17:53:56;71733.75;;;20.48
64600;BMP280;6553;48.412;9.514;2023-02-15T17:56:41;71731.50;;;20.49
64600;BMP280;6553;48.412;9.514;2023-02-15T17:59:07;71730.97;;;20.48
64600;BMP280;6553;48.412;9.514;2023-02-15T18:01:36;71730.44;;;20.48
64600;BMP280;6553;48.412;9.514;2023-02-15T18:04:22;71730.44;;;20.48
64600;BMP280;6553;48.412;9.514;2023-02-15T18:07:09;71727.66;;;20.48
64600;BMP280;6553;48.412;9.514;2023-02-15T18:09:55;71729.91;;;20.47